Time;durP1;ratioP1;P1;durP2;ratioP2;P2;SDS_P1;SDS_P2;PMS_P1;PMS_P2;Temp;Humidity;BMP_temperature;BMP_pressure;BME280_temperature;BME280_humidity;BME280_pressure;Samples;Min_cycle;Max_cycle;Signal;HPM_P1;HPM_P2
2023/01/29 00:04:17;;;;;;;15.83;8.43;;;13.70;82.40;;;;;;10482044;28;20110;-24
2023/01/29 00:09:19;;;;;;;15.20;8.23;;;12.80;81.40;;;;;;10482102;28;20103;-23
2023/01/29 00:14:21;;;;;;;21.02;9.73;;;12.30;93.70;;;;;;10483828;28;20606;-26
2023/01/29 00:19:24;;;;;;;17.63;8.73;;;13.50;93.00;;;;;;10478431;28;20140;-25
2023/01/29 00:24:26;;;;;;;20.90;9.63;;;12.40;95.30;;;;;;10490572;28;20102;-26
2023/01/29 00:29:28;;;;;;;18.67;7.83;;;12.70;93.80;;;;;;10488178;28;20480;-26
2023/01/29 00:34:31;;;;;;;18.70;9.77;;;14.00;86.80;;;;;;10480731;28;20569;-25
2023/01/29 00:39:37;;;;;;;16.52;7.97;;;14.20;89.50;;;;;;10483909;28;20052;-24
2023/01/29 00:44:57;;;;;;;19.30;9.80;;;13.50;89.40;;;;;;10492234;28;20045;-22
2023/01/29 00:50:01;;;;;;;17.92;7.85;;;12.80;95.20;;;;;;10494689;28;20091;-25
2023/01/29 00:55:05;;;;;;;14.52;7.68;;;11.80;73.70;;;;;;10496081;28;20072;-25
2023/01/29 01:00:12;;;;;;;14.50;7.82;;;13.40;93.20;;;;;;10486559;28;20159;-25
2023/01/29 01:05:20;;;;;;;16.58;8.77;;;13.80;90.20;;;;;;10488955;28;20522;-25
2023/01/29 01:10:25;;;;;;;20.38;8.77;;;12.70;92.40;;;;;;10501498;28;20481;-25
2023/01/29 01:15:30;;;;;;;16.58;8.00;;;13.50;90.70;;;;;;10490503;28;20190;-26
2023/01/29 01:20:35;;;;;;;18.20;8.00;;;13.40;91.20;;;;;;10495936;28;20132;-25
2023/01/29 01:25:37;;;;;;;18.30;8.13;;;13.60;90.60;;;;;;10486640;28;20121;-25
2023/01/29 01:30:38;;;;;;;14.77;7.45;;;13.80;91.00;;;;;;10487665;28;20040;-25
2023/01/29 01:35:42;;;;;;;16.07;7.67;;;13.70;90.90;;;;;;10483498;28;20144;-25
2023/01/29 01:40:47;;;;;;;14.23;8.35;;;15.10;80.30;;;;;;10478861;28;20514;-25
2023/01/29 01:45:48;;;;;;;14.02;7.15;;;15.00;76.80;;;;;;10490603;28;20044;-26
2023/01/29 01:50:56;;;;;;;15.63;9.43;;;13.90;88.90;;;;;;10485386;28;20119;-25
2023/01/29 01:56:02;;;;;;;14.35;7.75;;;14.10;82.50;;;;;;10480074;28;20049;-29
2023/01/29 02:01:06;;;;;;;16.40;9.48;;;13.30;85.10;;;;;;10486718;28;20088;-24
2023/01/29 02:11:30;;;;;;;13.05;6.35;;;12.90;90.70;;;;;;10474061;28;20056;-25
2023/01/29 02:16:34;;;;;;;13.70;6.50;;;13.70;89.30;;;;;;10482958;28;20102;-26
2023/01/29 02:21:56;;;;;;;11.77;5.90;;;14.90;81.30;;;;;;10486841;28;20912;-24
2023/01/29 02:27:08;;;;;;;12.20;7.35;;;15.20;78.00;;;;;;10483179;28;20053;-27
2023/01/29 02:32:20;;;;;;;12.70;6.53;;;14.70;78.50;;;;;;10487976;28;20460;-25
2023/01/29 02:37:26;;;;;;;9.40;5.43;;;15.00;78.60;;;;;;10486242;28;20087;-25
2023/01/29 02:42:35;;;;;;;8.55;4.93;;;14.50;83.70;;;;;;10484298;28;20068;-25
2023/01/29 02:47:45;;;;;;;9.30;4.72;;;14.80;80.70;;;;;;10497006;28;20067;-26
2023/01/29 02:52:58;;;;;;;9.32;5.07;;;13.40;90.10;;;;;;10486807;28;20036;-26
2023/01/29 02:58:04;;;;;;;9.35;5.00;;;14.90;74.30;;;;;;10477409;28;20105;-26
2023/01/29 03:03:12;;;;;;;9.38;5.47;;;15.40;76.10;;;;;;10480622;28;20048;-26
2023/01/29 03:08:20;;;;;;;9.93;4.10;;;15.40;75.60;;;;;;10483958;28;20127;-25
2023/01/29 03:13:30;;;;;;;8.25;4.75;;;14.40;82.40;;;;;;10492605;28;20057;-25
2023/01/29 03:18:42;;;;;;;8.77;4.90;;;14.70;80.70;;;;;;10485537;28;20521;-25
2023/01/29 03:34:33;;;;;;;15.82;9.40;;;14.50;82.70;;;;;;10485016;28;20543;-25
2023/01/29 03:39:36;;;;;;;8.63;4.53;;;13.40;84.50;;;;;;10489989;28;20040;-25
2023/01/29 03:44:45;;;;;;;13.13;7.93;;;14.00;88.00;;;;;;10493969;28;20044;-26
2023/01/29 03:49:57;;;;;;;12.80;8.63;;;13.40;87.10;;;;;;10491297;28;20127;-25
2023/01/29 03:55:05;;;;;;;6.35;3.72;;;12.90;89.30;;;;;;10483256;28;20080;-27
2023/01/29 04:00:15;;;;;;;6.53;3.85;;;13.00;92.10;;;;;;10484418;28;20068;-22
2023/01/29 04:05:22;;;;;;;8.63;4.85;;;13.30;91.60;;;;;;10481468;28;20128;-24
2023/01/29 04:10:27;;;;;;;9.60;6.70;;;14.20;85.70;;;;;;10485233;28;20080;-26
2023/01/29 04:15:32;;;;;;;7.97;4.10;;;12.70;91.60;;;;;;10470890;28;20045;-24
2023/01/29 04:20:37;;;;;;;8.18;3.95;;;12.40;94.30;;;;;;10485563;28;20044;-24
2023/01/29 04:25:46;;;;;;;6.80;4.60;;;12.30;94.90;;;;;;10490559;28;20479;-24
2023/01/29 04:30:54;;;;;;;14.73;8.68;;;12.30;94.10;;;;;;10489531;28;20064;-24
2023/01/29 04:36:11;;;;;;;9.48;5.57;;;10.80;91.50;;;;;;10488229;28;20161;-25
2023/01/29 04:41:19;;;;;;;16.27;9.00;;;10.70;99.90;;;;;;10484299;28;20411;-26
2023/01/29 04:46:27;;;;;;;12.55;7.93;;;9.80;90.70;;;;;;10485384;28;20131;-25
2023/01/29 04:51:41;;;;;;;12.73;6.10;;;11.20;98.30;;;;;;10495064;28;20139;-24
2023/01/29 04:56:52;;;;;;;14.88;7.07;;;10.80;94.30;;;;;;10484615;28;20507;-24
2023/01/29 05:01:54;;;;;;;12.43;7.40;;;10.30;92.70;;;;;;10489826;28;20455;-24
2023/01/29 05:06:58;;;;;;;12.48;7.82;;;10.60;99.90;;;;;;10494311;28;20075;-24
2023/01/29 05:12:01;;;;;;;16.83;10.32;;;10.80;99.10;;;;;;10479185;28;20080;-24
2023/01/29 05:17:05;;;;;;;;;;;10.70;92.30;;;;;;10482044;28;20493;-25
2023/01/29 05:22:09;;;;;;;;;;;10.90;99.60;;;;;;10497686;28;20034;-25
2023/01/29 05:32:38;;;;;;;17.40;10.93;;;9.70;97.50;;;;;;10479871;28;20044;-25
2023/01/29 05:37:41;;;;;;;;;;;8.80;94.60;;;;;;10492613;28;20049;-25
2023/01/29 05:42:43;;;;;;;12.93;9.30;;;10.60;99.90;;;;;;10477832;28;19924;-24
2023/01/29 05:47:45;;;;;;;11.27;7.22;;;10.40;99.90;;;;;;10475070;28;20048;-25
2023/01/29 05:52:48;;;;;;;15.60;11.02;;;10.40;99.90;;;;;;10489880;28;20131;-25
2023/01/29 05:57:50;;;;;;;15.75;7.68;;;10.10;95.40;;;;;;10498081;28;20123;-25
2023/01/29 06:02:52;;;;;;;7.57;4.68;;;10.70;94.70;;;;;;10481010;28;20044;-24
2023/01/29 06:07:55;;;;;;;21.77;13.00;;;10.30;99.60;;;;;;10496341;28;20140;-25
2023/01/29 06:12:56;;;;;;;8.65;6.18;;;10.00;86.70;;;;;;10490978;28;20080;-25
2023/01/29 06:17:58;;;;;;;21.20;10.55;;;10.00;99.90;;;;;;10475634;28;20088;-26
2023/01/29 06:23:02;;;;;;;5.78;4.63;;;9.40;96.00;;;;;;10491944;28;20071;-25
2023/01/29 06:28:04;;;;;;;17.92;11.00;;;11.10;98.40;;;;;;10488011;28;20556;-26
2023/01/29 06:33:06;;;;;;;15.05;8.77;;;11.10;91.70;;;;;;10487093;28;20177;-26
2023/01/29 06:38:09;;;;;;;19.25;11.50;;;10.40;92.80;;;;;;10482123;28;20136;-24
2023/01/29 06:43:11;;;;;;;12.77;8.02;;;9.80;99.90;;;;;;10476624;28;20490;-25
2023/01/29 06:48:13;;;;;;;14.82;9.25;;;9.10;99.90;;;;;;10489467;28;20088;-25
2023/01/29 06:53:16;;;;;;;20.63;13.48;;;10.90;95.10;;;;;;10486431;28;20127;-25
2023/01/29 06:58:18;;;;;;;8.43;5.78;;;9.00;95.10;;;;;;10488385;28;20052;-25
2023/01/29 07:14:46;;;;;;;16.73;8.73;;;9.30;99.90;;;;;;10545109;27;20200;-25
2023/01/29 07:19:48;;;;;;;11.55;8.30;;;10.20;99.90;;;;;;10537540;28;20094;-26
2023/01/29 07:24:50;;;;;;;13.13;7.63;;;9.80;99.90;;;;;;10541633;28;20139;-25
2023/01/29 07:29:53;;;;;;;22.35;13.50;;;9.90;99.10;;;;;;10524830;28;20071;-24
2023/01/29 07:34:55;;;;;;;7.85;5.13;;;9.80;98.20;;;;;;10513880;28;20056;-25
2023/01/29 07:39:57;;;;;;;19.20;11.05;;;11.70;98.60;;;;;;10524421;28;20077;-25
2023/01/29 07:45:00;;;;;;;7.73;5.23;;;12.00;95.20;;;;;;10521144;28;20131;-26
2023/01/29 07:50:02;;;;;;;13.75;8.27;;;11.60;93.80;;;;;;10519602;28;20049;-25
2023/01/29 07:55:05;;;;;;;12.07;7.70;;;11.80;91.70;;;;;;10521754;28;20055;-26
2023/01/29 08:00:10;;;;;;;24.08;13.68;;;11.70;97.60;;;;;;10522944;28;20131;-25
2023/01/29 08:05:12;;;;;;;8.88;6.53;;;10.90;96.80;;;;;;10512207;28;20052;-25
2023/01/29 08:10:14;;;;;;;18.63;11.60;;;10.80;99.90;;;;;;10505409;28;20172;-25
2023/01/29 08:15:17;;;;;;;22.23;12.95;;;10.90;96.60;;;;;;10510439;28;20070;-25
2023/01/29 08:20:20;;;;;;;18.02;11.43;;;9.80;99.90;;;;;;10517903;28;20117;-25
2023/01/29 08:25:21;;;;;;;25.20;16.20;;;9.30;99.50;;;;;;10499368;28;20102;-25
2023/01/29 08:30:25;;;;;;;12.50;8.65;;;8.20;99.90;;;;;;10487007;28;20179;-25
2023/01/29 08:35:27;;;;;;;19.58;11.90;;;10.10;99.90;;;;;;10492064;28;20044;-25
2023/01/29 08:40:31;;;;;;;26.23;12.27;;;11.30;93.20;;;;;;10491279;28;20045;-25
2023/01/29 08:45:37;;;;;;;18.55;11.50;;;8.90;99.90;;;;;;10493489;28;20602;-24
2023/01/29 08:50:38;;;;;;;15.85;8.85;;;10.10;99.90;;;;;;10495469;28;20056;-24
2023/01/29 08:55:40;;;;;;;29.45;17.13;;;9.70;99.90;;;;;;10485712;28;20102;-24
2023/01/29 09:00:44;;;;;;;19.23;10.20;;;9.10;99.90;;;;;;10489276;28;20052;-25
2023/01/29 09:05:46;;;;;;;24.80;16.17;;;10.00;99.90;;;;;;10488449;28;20408;-24
2023/01/29 09:10:48;;;;;;;23.90;15.07;;;9.10;97.80;;;;;;10489942;28;20397;-25
2023/01/29 09:15:51;;;;;;;28.08;13.85;;;9.60;99.90;;;;;;10490046;28;20044;-24
2023/01/29 09:20:53;;;;;;;21.08;12.68;;;10.10;99.90;;;;;;10490460;28;20068;-25
2023/01/29 09:25:56;;;;;;;24.88;16.33;;;10.70;99.20;;;;;;10487461;28;20072;-26
2023/01/29 09:31:01;;;;;;;21.77;11.45;;;11.00;99.70;;;;;;10487492;28;20095;-25
2023/01/29 09:36:03;;;;;;;29.45;15.88;;;10.20;99.90;;;;;;10487130;28;20671;-23
2023/01/29 09:41:15;;;;;;;34.10;18.85;;;8.70;99.90;;;;;;10485985;28;20483;-27
2023/01/29 09:46:22;;;;;;;21.30;12.50;;;9.10;99.90;;;;;;10485877;28;20044;-25
2023/01/29 09:51:30;;;;;;;31.25;19.35;;;10.30;99.10;;;;;;10488677;28;20131;-25
2023/01/29 09:56:32;;;;;;;23.77;15.93;;;8.60;99.90;;;;;;10485898;28;20383;-25
2023/01/29 10:01:46;;;;;;;24.58;16.45;;;11.30;99.90;;;;;;10485097;28;20040;-26
2023/01/29 10:07:01;;;;;;;11.13;6.97;;;10.60;95.10;;;;;;10489722;28;20036;-25
2023/01/29 10:12:16;;;;;;;28.63;18.10;;;11.70;99.90;;;;;;10488014;28;20194;-25
2023/01/29 10:17:35;;;;;;;16.15;10.82;;;10.10;94.80;;;;;;10488589;28;20477;-26
2023/01/29 10:22:49;;;;;;;17.85;11.57;;;12.90;97.80;;;;;;10487686;28;20044;-25
2023/01/29 10:27:54;;;;;;;10.40;7.28;;;11.40;91.40;;;;;;10486401;28;20052;-26
2023/01/29 10:33:02;;;;;;;25.08;14.68;;;11.20;99.90;;;;;;10483731;28;20124;-26
2023/01/29 10:38:22;;;;;;;24.55;13.40;;;11.00;99.90;;;;;;10472652;28;20485;-25
2023/01/29 10:43:33;;;;;;;17.27;10.65;;;9.60;99.90;;;;;;10479618;28;20053;-25
2023/01/29 10:48:47;;;;;;;22.65;12.95;;;10.60;99.90;;;;;;10475194;28;20720;-26
2023/01/29 10:54:04;;;;;;;34.85;19.33;;;10.20;99.90;;;;;;10479697;28;20051;-25
2023/01/29 10:59:15;;;;;;;29.15;17.20;;;9.40;99.90;;;;;;10480390;28;20049;-27
2023/01/29 11:04:19;;;;;;;18.17;11.13;;;10.20;95.80;;;;;;10480660;28;20095;-26
2023/01/29 11:09:29;;;;;;;27.70;13.75;;;9.90;99.90;;;;;;10484769;28;20060;-26
2023/01/29 11:14:39;;;;;;;26.67;15.23;;;10.60;99.90;;;;;;10482991;28;20063;-27
2023/01/29 11:19:44;;;;;;;23.85;10.63;;;9.70;99.90;;;;;;10487562;28;20040;-26
2023/01/29 11:24:46;;;;;;;27.25;15.00;;;10.90;95.90;;;;;;10486900;28;20127;-26
2023/01/29 11:29:50;;;;;;;29.33;18.40;;;9.90;99.90;;;;;;10484916;28;20060;-26
2023/01/29 11:35:02;;;;;;;28.60;16.60;;;9.10;99.90;;;;;;10480489;28;20139;-27
2023/01/29 11:40:35;;;;;;;43.05;19.33;;;8.80;99.90;;;;;;10483334;28;20072;-26
2023/01/29 11:45:39;;;;;;;25.95;15.63;;;8.30;99.90;;;;;;10482389;28;20500;-27
2023/01/29 11:50:44;;;;;;;13.90;7.55;;;8.80;99.90;;;;;;10484963;28;20097;-26
2023/01/29 11:55:47;;;;;;;22.95;12.98;;;11.20;99.90;;;;;;10475549;28;22735;-25
2023/01/29 12:00:51;;;;;;;20.73;12.40;;;9.40;99.90;;;;;;10492944;28;20036;-24
2023/01/29 12:05:58;;;;;;;30.25;17.00;;;10.30;99.90;;;;;;10497838;28;20045;-25
2023/01/29 12:11:08;;;;;;;24.63;14.55;;;8.10;99.90;;;;;;10490070;28;20057;-25
2023/01/29 12:16:23;;;;;;;17.50;8.48;;;9.10;98.90;;;;;;10491192;28;20141;-25
2023/01/29 12:21:34;;;;;;;26.48;14.98;;;11.20;99.90;;;;;;10491252;28;20518;-26
2023/01/29 12:26:40;;;;;;;20.30;10.82;;;8.60;99.90;;;;;;10502604;28;20075;-28
2023/01/29 12:31:48;;;;;;;22.30;10.48;;;9.60;99.90;;;;;;10493394;28;20147;-25
2023/01/29 12:36:56;;;;;;;20.08;12.38;;;9.00;99.90;;;;;;10495323;28;20088;-25
2023/01/29 12:42:03;;;;;;;22.02;12.73;;;9.60;99.90;;;;;;10497497;28;20054;-23
2023/01/29 12:47:08;;;;;;;23.23;11.00;;;9.90;99.90;;;;;;10499554;28;20075;-25
2023/01/29 12:52:15;;;;;;;25.30;13.85;;;10.40;99.90;;;;;;10498129;28;20138;-25
2023/01/29 12:57:23;;;;;;;27.38;15.82;;;9.50;99.90;;;;;;10490797;28;20102;-25
2023/01/29 13:02:33;;;;;;;21.25;10.02;;;8.40;99.90;;;;;;10490399;28;20557;-24
2023/01/29 13:07:44;;;;;;;26.08;15.73;;;10.10;99.90;;;;;;10485860;28;20056;-25
2023/01/29 13:12:54;;;;;;;24.20;12.63;;;9.00;99.90;;;;;;10491401;28;20052;-24
2023/01/29 13:18:02;;;;;;;18.35;9.93;;;8.80;99.90;;;;;;10482131;28;20114;-25
2023/01/29 13:23:16;;;;;;;21.23;11.48;;;12.30;95.60;;;;;;10489454;28;20136;-25
2023/01/29 13:28:20;;;;;;;18.67;10.98;;;10.00;99.90;;;;;;10490607;28;20052;-25
2023/01/29 13:33:23;;;;;;;28.35;16.40;;;10.30;99.90;;;;;;10490297;28;20135;-27
2023/01/29 13:38:31;;;;;;;24.33;14.10;;;7.90;99.90;;;;;;10487546;28;20090;-25
2023/01/29 13:43:37;;;;;;;26.17;13.50;;;9.10;99.90;;;;;;10489732;28;20052;-26
2023/01/29 13:48:45;;;;;;;20.38;11.32;;;9.90;99.90;;;;;;10494507;28;20182;-25
2023/01/29 13:53:57;;;;;;;14.23;8.55;;;9.90;99.90;;;;;;10488958;28;20052;-25
2023/01/29 13:59:24;;;;;;;27.27;12.98;;;10.70;99.90;;;;;;10491421;28;20098;-25
2023/01/29 14:04:28;;;;;;;23.55;13.15;;;9.30;99.90;;;;;;10495809;28;20075;-25
2023/01/29 14:10:03;;;;;;;24.10;14.48;;;8.70;99.90;;;;;;10490632;28;20079;-26
2023/01/29 14:15:27;;;;;;;25.27;13.02;;;7.40;99.90;;;;;;10486547;28;20750;-26
2023/01/29 14:20:37;;;;;;;22.27;13.95;;;8.30;99.90;;;;;;10483675;28;20052;-26
2023/01/29 14:25:40;;;;;;;22.55;13.73;;;8.00;99.90;;;;;;10493357;28;20036;-25
2023/01/29 14:30:48;;;;;;;22.38;13.68;;;8.30;99.90;;;;;;10493330;28;20576;-25
2023/01/29 14:35:51;;;;;;;36.92;13.52;;;8.70;99.90;;;;;;10483239;28;20373;-26
2023/01/29 14:41:04;;;;;;;30.20;13.95;;;9.20;99.90;;;;;;10485159;28;20048;-25
2023/01/29 14:46:43;;;;;;;23.08;13.43;;;8.20;99.90;;;;;;10485649;28;20055;-26
2023/01/29 14:51:46;;;;;;;17.85;11.85;;;9.20;99.90;;;;;;10483356;28;20055;-25
2023/01/29 14:56:57;;;;;;;18.50;9.85;;;8.90;99.90;;;;;;10486260;28;20045;-25
2023/01/29 15:02:05;;;;;;;21.60;11.65;;;10.00;99.90;;;;;;10488286;28;20068;-26
2023/01/29 15:07:17;;;;;;;20.40;11.00;;;9.80;99.90;;;;;;10484204;28;20040;-25
2023/01/29 15:12:28;;;;;;;16.37;9.77;;;11.50;99.90;;;;;;10479269;28;20142;-26
2023/01/29 15:17:37;;;;;;;15.45;9.63;;;11.20;99.90;;;;;;10484526;28;20094;-27
2023/01/29 15:22:43;;;;;;;23.98;11.18;;;9.90;99.90;;;;;;10490024;28;20067;-25
2023/01/29 15:27:45;;;;;;;23.77;12.63;;;9.60;99.90;;;;;;10490237;28;20451;-26
2023/01/29 15:32:49;;;;;;;28.98;13.25;;;9.00;99.90;;;;;;10488044;28;20094;-25
2023/01/29 15:37:59;;;;;;;29.17;15.50;;;9.30;99.90;;;;;;10494079;28;20045;-25
2023/01/29 15:43:01;;;;;;;20.90;10.95;;;7.20;99.90;;;;;;10493421;28;20048;-25
2023/01/29 15:48:08;;;;;;;22.40;11.90;;;8.70;99.90;;;;;;10491123;28;20404;-25
2023/01/29 15:53:15;;;;;;;19.73;12.07;;;8.30;99.90;;;;;;10500637;28;20129;-25
2023/01/29 15:58:20;;;;;;;25.95;13.95;;;9.30;99.90;;;;;;10494434;28;20072;-26
2023/01/29 16:03:26;;;;;;;21.40;13.05;;;8.90;99.90;;;;;;10492762;28;20080;-26
2023/01/29 16:08:29;;;;;;;25.48;10.90;;;8.10;99.90;;;;;;10492045;28;20076;-26
2023/01/29 16:13:34;;;;;;;25.30;12.70;;;10.80;99.90;;;;;;10491071;28;20052;-26
2023/01/29 16:18:38;;;;;;;22.67;12.38;;;8.40;99.90;;;;;;10492548;28;20101;-27
2023/01/29 16:23:43;;;;;;;21.77;13.77;;;8.70;99.90;;;;;;10491208;28;20094;-25
2023/01/29 16:28:46;;;;;;;25.65;13.15;;;7.80;99.90;;;;;;10492901;28;20451;-26
2023/01/29 16:33:50;;;;;;;19.52;12.60;;;8.20;99.90;;;;;;10492778;28;20054;-26
2023/01/29 16:38:55;;;;;;;20.27;11.38;;;8.60;99.90;;;;;;10488925;28;20131;-25
2023/01/29 16:43:58;;;;;;;23.92;13.23;;;8.60;99.90;;;;;;10489977;28;20149;-25
2023/01/29 16:49:04;;;;;;;22.05;12.15;;;8.70;99.90;;;;;;10492749;28;20044;-24
2023/01/29 16:54:10;;;;;;;27.80;12.93;;;8.60;99.90;;;;;;10491072;28;20098;-25
2023/01/29 16:59:18;;;;;;;19.33;11.73;;;8.10;99.90;;;;;;10491437;28;20040;-25
2023/01/29 17:04:22;;;;;;;26.45;11.80;;;7.60;99.90;;;;;;10492325;28;20459;-25
2023/01/29 17:09:27;;;;;;;32.83;14.60;;;7.50;99.90;;;;;;10489758;28;20868;-25
2023/01/29 17:14:31;;;;;;;25.95;13.30;;;7.20;99.90;;;;;;10492068;28;20048;-26
2023/01/29 17:19:34;;;;;;;23.17;13.02;;;7.40;99.90;;;;;;10489648;28;20072;-26
2023/01/29 17:24:36;;;;;;;27.60;13.68;;;7.20;99.90;;;;;;10490148;28;20746;-25
2023/01/29 17:29:38;;;;;;;26.40;11.43;;;7.20;99.90;;;;;;10482006;28;20120;-26
2023/01/29 17:34:42;;;;;;;27.70;13.33;;;7.40;99.90;;;;;;10483545;28;20481;-25
2023/01/29 17:39:46;;;;;;;24.88;11.98;;;7.40;99.90;;;;;;10486183;28;20102;-26
2023/01/29 17:44:48;;;;;;;15.95;9.68;;;7.80;99.90;;;;;;10486176;28;20040;-26
2023/01/29 17:49:51;;;;;;;21.30;11.82;;;9.40;99.90;;;;;;10487284;28;20064;-25
2023/01/29 17:54:53;;;;;;;20.23;10.13;;;8.60;99.90;;;;;;10479108;28;20059;-24
2023/01/29 17:59:55;;;;;;;23.45;11.25;;;9.60;99.90;;;;;;10487124;28;20094;-26
2023/01/29 18:04:58;;;;;;;21.00;10.80;;;9.20;99.90;;;;;;10485680;28;20401;-25
2023/01/29 18:10:00;;;;;;;;;;;9.20;99.90;;;;;;10484396;28;20170;-26
2023/01/29 18:15:02;;;;;;;11.60;7.20;;;9.50;99.90;;;;;;10483888;28;19924;-25
2023/01/29 18:20:16;;;;;;;12.67;7.27;;;12.50;99.90;;;;;;10487884;28;20088;-27
2023/01/29 18:25:18;;;;;;;24.77;11.70;;;10.20;99.90;;;;;;10486687;28;20049;-25
2023/01/29 18:30:20;;;;;;;20.27;11.93;;;8.50;99.90;;;;;;10489438;28;20041;-26
2023/01/29 18:35:24;;;;;;;25.20;12.80;;;9.40;99.90;;;;;;10486273;28;20083;-26
2023/01/29 18:40:27;;;;;;;18.27;10.15;;;8.00;99.90;;;;;;10484969;28;20140;-26
2023/01/29 18:45:30;;;;;;;27.15;13.10;;;7.90;99.90;;;;;;10486643;28;20127;-26
2023/01/29 18:50:33;;;;;;;28.97;11.73;;;7.40;99.90;;;;;;10484436;28;20048;-26
2023/01/29 18:55:35;;;;;;;25.50;11.55;;;7.60;99.90;;;;;;10485747;28;20060;-26
2023/01/29 19:00:37;;;;;;;24.13;12.77;;;8.80;99.90;;;;;;10485219;28;20049;-25
2023/01/29 19:05:40;;;;;;;22.02;11.85;;;8.20;99.90;;;;;;10482324;28;20519;-26
2023/01/29 19:10:42;;;;;;;;;;;8.80;99.90;;;;;;10483884;28;20124;-27
2023/01/29 19:15:46;;;;;;;14.75;8.68;;;7.60;99.90;;;;;;10485654;28;19985;-26
2023/01/29 19:20:50;;;;;;;17.23;11.38;;;8.50;99.90;;;;;;10487765;28;20059;-27
2023/01/29 19:25:52;;;;;;;21.58;11.68;;;10.90;99.90;;;;;;10489494;28;20336;-27
2023/01/29 19:30:56;;;;;;;21.23;11.97;;;11.60;99.90;;;;;;10484550;28;20049;-26
2023/01/29 19:36:00;;;;;;;14.63;9.75;;;10.60;99.90;;;;;;10480561;28;20060;-27
2023/01/29 19:41:04;;;;;;;22.40;10.00;;;10.00;99.90;;;;;;10482175;28;20106;-27
2023/01/29 19:46:06;;;;;;;25.42;9.63;;;10.40;99.90;;;;;;10489222;28;20052;-25
2023/01/29 19:51:10;;;;;;;22.63;10.77;;;10.10;99.90;;;;;;10481852;28;20058;-25
2023/01/29 19:56:15;;;;;;;18.52;9.65;;;10.10;99.90;;;;;;10484890;28;20048;-24
2023/01/29 20:01:19;;;;;;;20.27;8.13;;;9.80;99.90;;;;;;10480564;28;20143;-25
2023/01/29 20:06:25;;;;;;;29.63;7.05;;;9.40;99.90;;;;;;10482493;28;20091;-26
2023/01/29 20:11:27;;;;;;;17.63;6.25;;;8.40;99.90;;;;;;10481936;28;20548;-25
2023/01/29 20:16:29;;;;;;;13.07;3.75;;;8.70;99.90;;;;;;10490925;28;20084;-24
2023/01/29 20:21:32;;;;;;;15.77;3.38;;;9.30;99.90;;;;;;10498992;28;20048;-25
2023/01/29 20:26:34;;;;;;;13.32;3.38;;;8.90;99.90;;;;;;10491743;28;20048;-24
2023/01/29 20:31:36;;;;;;;15.07;3.90;;;8.60;99.90;;;;;;10492060;28;20060;-25
2023/01/29 20:36:39;;;;;;;11.80;3.08;;;8.50;99.90;;;;;;10486395;28;20125;-25
2023/01/29 20:41:41;;;;;;;;;;;8.70;99.90;;;;;;10501958;28;20051;-25
2023/01/29 20:46:42;;;;;;;10.65;4.28;;;8.40;99.90;;;;;;10488528;28;20344;-25
2023/01/29 20:51:46;;;;;;;12.93;4.22;;;8.70;99.90;;;;;;10490233;28;20064;-24
2023/01/29 20:56:48;;;;;;;22.33;4.70;;;8.90;99.90;;;;;;10489787;28;20469;-25
2023/01/29 21:01:50;;;;;;;7.68;2.97;;;8.60;99.90;;;;;;10488974;28;20064;-25
2023/01/29 21:06:53;;;;;;;13.55;3.58;;;8.90;99.90;;;;;;10488536;28;20149;-26
2023/01/29 21:11:54;;;;;;;;;;;8.90;99.90;;;;;;10493211;28;20068;-25
2023/01/29 21:16:56;;;;;;;12.88;4.50;;;8.90;99.90;;;;;;10490724;28;19928;-26
2023/01/29 21:22:00;;;;;;;14.48;4.45;;;8.70;99.90;;;;;;10490821;28;20516;-24
2023/01/29 21:27:04;;;;;;;7.97;3.03;;;8.50;99.90;;;;;;10489238;28;20504;-27
2023/01/29 21:32:07;;;;;;;6.60;3.03;;;9.20;99.90;;;;;;10490449;28;20076;-25
2023/01/29 21:37:11;;;;;;;8.20;3.50;;;9.70;99.90;;;;;;10482068;28;20056;-26
2023/01/29 21:47:32;;;;;;;13.40;3.15;;;9.00;99.90;;;;;;10482360;28;19924;-25
2023/01/29 21:52:35;;;;;;;10.82;3.35;;;8.60;99.90;;;;;;10489634;28;20079;-23
2023/01/29 21:57:37;;;;;;;;;;;8.90;99.90;;;;;;10482928;28;20099;-25
2023/01/29 22:02:39;;;;;;;12.80;3.80;;;9.50;99.90;;;;;;10484802;28;20329;-25
2023/01/29 22:07:43;;;;;;;24.07;4.13;;;8.90;99.90;;;;;;10484905;28;20129;-23
2023/01/29 22:12:45;;;;;;;9.35;2.75;;;9.00;99.90;;;;;;10496630;28;20056;-25
2023/01/29 22:17:47;;;;;;;15.10;3.93;;;9.40;99.90;;;;;;10497555;28;20060;-26
2023/01/29 22:22:50;;;;;;;10.73;3.92;;;8.80;99.90;;;;;;10501092;28;20128;-25
2023/01/29 22:27:52;;;;;;;;;;;8.60;99.90;;;;;;10489492;28;20110;-27
2023/01/29 22:32:54;;;;;;;20.40;5.20;;;8.70;99.90;;;;;;10492548;28;19967;-25
2023/01/29 22:37:57;;;;;;;9.13;3.55;;;8.70;99.90;;;;;;10492594;28;20064;-25
2023/01/29 22:42:59;;;;;;;9.05;4.03;;;9.10;99.90;;;;;;10485513;28;20116;-25
2023/01/29 22:48:00;;;;;;;14.13;4.88;;;9.20;99.90;;;;;;10472090;28;20182;-25
2023/01/29 22:53:04;;;;;;;17.35;5.22;;;9.00;99.90;;;;;;10497609;28;20477;-25
2023/01/29 22:58:06;;;;;;;11.98;4.65;;;8.70;99.90;;;;;;10489498;28;20050;-25
2023/01/29 23:03:08;;;;;;;12.23;4.72;;;9.10;99.90;;;;;;10485384;28;20125;-25
2023/01/29 23:08:11;;;;;;;12.40;4.78;;;8.80;99.90;;;;;;10485294;28;20432;-26
2023/01/29 23:13:13;;;;;;;15.32;4.32;;;9.00;99.90;;;;;;10486651;28;20548;-25
2023/01/29 23:18:15;;;;;;;19.92;4.63;;;8.80;99.90;;;;;;10492104;28;20159;-25
2023/01/29 23:23:18;;;;;;;26.38;5.35;;;8.80;99.90;;;;;;10492452;28;20048;-24
2023/01/29 23:28:20;;;;;;;;;;;8.80;99.90;;;;;;10500319;28;20453;-24
2023/01/29 23:33:21;;;;;;;15.85;5.05;;;8.60;99.90;;;;;;10484616;28;19968;-25
2023/01/29 23:38:25;;;;;;;14.77;5.82;;;8.70;99.90;;;;;;10484049;28;20508;-25
2023/01/29 23:43:28;;;;;;;9.60;3.85;;;9.30;99.90;;;;;;10495322;28;20229;-24
2023/01/29 23:48:29;;;;;;;19.40;5.75;;;9.00;99.90;;;;;;10487902;28;20079;-25
2023/01/29 23:53:33;;;;;;;18.20;5.03;;;8.80;99.90;;;;;;10486432;28;20072;-26
2023/01/29 23:58:35;;;;;;;26.58;6.22;;;8.50;99.90;;;;;;10492443;28;20052;-25
